createdAt,value
2023-02-16T00:02:10.027Z,102297.56
2023-02-16T00:04:36.987Z,102304.78
2023-02-16T00:07:03.389Z,102304.31
2023-02-16T00:09:29.795Z,102294.47
2023-02-16T00:12:16.308Z,102294.16
2023-02-16T00:14:42.792Z,102301.50
2023-02-16T00:17:11.370Z,102298.00
2023-02-16T00:19:40.929Z,102289.13
2023-02-16T00:22:08.145Z,102292.91
2023-02-16T00:24:35.142Z,102293.91
2023-02-16T00:27:01.947Z,102289.66
2023-02-16T00:29:31.213Z,102290.38
2023-02-16T00:31:59.547Z,102294.75
2023-02-16T00:34:35.150Z,102289.66
2023-02-16T00:37:07.278Z,102295.16
2023-02-16T00:39:34.315Z,102295.16
2023-02-16T00:42:04.134Z,102289.91
2023-02-16T00:44:37.269Z,102291.16
2023-02-16T00:47:23.950Z,102283.28
2023-02-16T00:49:52.970Z,102287.47
2023-02-16T00:52:22.228Z,102286.91
2023-02-16T00:54:48.645Z,102283.53
2023-02-16T00:57:19.048Z,102271.25
2023-02-16T00:59:48.881Z,102277.72
2023-02-16T01:02:15.590Z,102271.66
2023-02-16T01:04:42.339Z,102262.38
2023-02-16T01:07:37.087Z,102266.63
2023-02-16T01:10:24.651Z,102270.00
2023-02-16T01:12:51.116Z,102260.97
2023-02-16T01:15:21.100Z,102266.47
2023-02-16T01:17:47.557Z,102262.22
2023-02-16T01:20:20.049Z,102257.88
2023-02-16T01:22:46.961Z,102262.22
2023-02-16T01:25:14.559Z,102263.47
2023-02-16T01:27:42.769Z,102262.06
2023-02-16T01:30:18.454Z,102271.94
2023-02-16T01:32:51.337Z,102267.72
2023-02-16T01:35:24.377Z,102264.88
2023-02-16T01:37:51.071Z,102261.78
2023-02-16T01:40:33.081Z,102261.47
2023-02-16T01:43:24.679Z,102254.44
2023-02-16T01:46:01.807Z,102257.00
2023-02-16T01:48:30.356Z,102251.66
2023-02-16T01:51:27.918Z,102253.91
2023-02-16T01:54:05.366Z,102255.44
2023-02-16T01:56:47.626Z,102248.69
2023-02-16T01:59:32.547Z,102243.91
2023-02-16T02:02:03.177Z,102238.44
2023-02-16T02:05:01.771Z,102248.00
2023-02-16T02:07:55.296Z,102246.16
2023-02-16T02:10:41.041Z,102240.97
2023-02-16T02:13:15.496Z,102236.84
2023-02-16T02:15:42.038Z,102228.50
2023-02-16T02:18:08.537Z,102228.25
2023-02-16T02:21:24.467Z,102228.69
2023-02-16T02:23:56.880Z,102229.53
2023-02-16T02:26:57.284Z,102228.56
2023-02-16T02:29:59.636Z,102234.19
2023-02-16T02:32:56.576Z,102222.19
2023-02-16T02:35:44.142Z,102215.44
2023-02-16T02:38:14.848Z,102214.44
2023-02-16T02:40:59.294Z,102210.34
2023-02-16T02:43:44.434Z,102213.59
2023-02-16T02:46:27.302Z,102207.94
2023-02-16T02:48:53.743Z,102208.81
2023-02-16T02:51:30.686Z,102200.50
2023-02-16T02:54:32.835Z,102198.81
2023-02-16T02:57:27.084Z,102195.69
2023-02-16T03:00:18.743Z,102197.25
2023-02-16T03:02:49.576Z,102189.66
2023-02-16T03:05:19.737Z,102200.63
2023-02-16T03:07:48.610Z,102195.84
2023-02-16T03:10:41.409Z,102190.34
2023-02-16T03:13:13.145Z,102193.19
2023-02-16T03:15:40.962Z,102194.19
2023-02-16T03:18:29.406Z,102193.19
2023-02-16T03:21:15.082Z,102192.47
2023-02-16T03:24:02.845Z,102199.22
2023-02-16T03:26:49.709Z,102181.19
2023-02-16T03:29:22.419Z,102184.72
2023-02-16T03:31:50.773Z,102175.81
2023-02-16T03:34:19.029Z,102184.44
2023-02-16T03:36:48.870Z,102179.66
2023-02-16T03:39:15.655Z,102188.81
2023-02-16T03:41:45.979Z,102184.44
2023-02-16T03:44:12.503Z,102186.16
2023-02-16T03:46:38.963Z,102186.84
2023-02-16T03:49:05.605Z,102183.59
2023-02-16T03:51:32.106Z,102183.31
2023-02-16T03:53:58.507Z,102184.88
2023-02-16T03:56:24.993Z,102188.66
2023-02-16T03:58:51.475Z,102186.41
2023-02-16T04:01:17.849Z,102185.44
2023-02-16T04:03:44.461Z,102182.91
2023-02-16T04:06:10.899Z,102183.75
2023-02-16T04:08:37.350Z,102185.44
2023-02-16T04:11:24.290Z,102182.06
2023-02-16T04:13:50.737Z,102190.25
2023-02-16T04:16:17.198Z,102190.50
2023-02-16T04:18:43.632Z,102195.03
2023-02-16T04:21:10.245Z,102194.03
2023-02-16T04:23:36.684Z,102198.53
2023-02-16T04:26:03.508Z,102192.19
2023-02-16T04:28:29.970Z,102196.69
2023-02-16T04:30:56.446Z,102185.56
2023-02-16T04:33:22.888Z,102181.78
2023-02-16T04:35:49.301Z,102185.31
2023-02-16T04:38:15.719Z,102189.66
2023-02-16T04:40:42.206Z,102192.19
2023-02-16T04:43:08.608Z,102177.84
2023-02-16T04:45:35.049Z,102183.47
2023-02-16T04:48:01.414Z,102183.63
2023-02-16T04:50:27.784Z,102183.75
2023-02-16T04:52:54.176Z,102181.22
2023-02-16T04:55:20.555Z,102183.75
2023-02-16T04:57:46.997Z,102180.06
2023-02-16T05:00:13.711Z,102172.50
2023-02-16T05:02:40.159Z,102172.19
2023-02-16T05:05:07.075Z,102165.16
2023-02-16T05:07:33.511Z,102160.78
2023-02-16T05:09:59.968Z,102153.31
2023-02-16T05:12:44.883Z,102147.13
2023-02-16T05:15:11.307Z,102153.44
2023-02-16T05:17:37.675Z,102144.44
2023-02-16T05:20:04.739Z,102153.19
2023-02-16T05:22:34.449Z,102148.66
2023-02-16T05:25:01.889Z,102156.69
2023-02-16T05:27:30.375Z,102152.50
2023-02-16T05:29:57.995Z,102157.38
2023-02-16T05:32:25.117Z,102159.38
2023-02-16T05:34:51.603Z,102155.97
2023-02-16T05:37:18.508Z,102150.34
2023-02-16T05:39:45.228Z,102157.69
2023-02-16T05:42:11.600Z,102174.19
2023-02-16T05:44:38.173Z,102149.94
2023-02-16T05:47:04.707Z,102163.63
2023-02-16T05:49:31.250Z,102168.09
2023-02-16T05:51:57.711Z,102167.69
2023-02-16T05:54:24.168Z,102165.16
2023-02-16T05:56:52.601Z,102169.94
2023-02-16T05:59:19.070Z,102164.31
2023-02-16T06:01:50.590Z,102160.50
2023-02-16T06:04:18.041Z,102167.69
2023-02-16T06:06:44.649Z,102164.88
2023-02-16T06:09:11.298Z,102168.53
2023-02-16T06:11:37.756Z,102165.72
2023-02-16T06:14:12.836Z,102164.72
2023-02-16T06:16:41.247Z,102168.97
2023-02-16T06:19:09.239Z,102163.63
2023-02-16T06:21:38.274Z,102161.91
2023-02-16T06:24:05.873Z,102138.78
2023-02-16T06:26:32.349Z,102151.06
2023-02-16T06:28:58.918Z,102165.31
2023-02-16T06:31:26.279Z,102163.47
2023-02-16T06:33:53.671Z,102163.19
2023-02-16T06:36:20.721Z,102163.19
2023-02-16T06:38:47.671Z,102174.75
2023-02-16T06:41:31.011Z,102173.59
2023-02-16T06:43:59.479Z,102178.13
2023-02-16T06:46:26.060Z,102181.94
2023-02-16T06:48:52.915Z,102183.06
2023-02-16T06:51:19.901Z,102184.03
2023-02-16T06:53:47.126Z,102188.97
2023-02-16T06:56:13.802Z,102184.19
2023-02-16T06:58:40.326Z,102195.75
2023-02-16T07:01:07.083Z,102193.34
2023-02-16T07:03:33.869Z,102185.88
2023-02-16T07:06:00.319Z,102185.63
2023-02-16T07:08:26.803Z,102179.16
2023-02-16T07:10:53.875Z,102180.09
2023-02-16T07:13:20.319Z,102187.44
2023-02-16T07:15:47.219Z,102184.63
2023-02-16T07:18:13.804Z,102186.31
2023-02-16T07:20:40.222Z,102190.41
2023-02-16T07:23:06.809Z,102193.91
2023-02-16T07:25:35.289Z,102198.44
2023-02-16T07:28:02.493Z,102197.72
2023-02-16T07:30:29.043Z,102199.53
2023-02-16T07:32:55.505Z,102200.13
2023-02-16T07:35:22.737Z,102210.56
2023-02-16T07:37:49.269Z,102209.88
2023-02-16T07:40:15.730Z,102216.06
2023-02-16T07:42:42.124Z,102218.75
2023-02-16T07:45:09.526Z,102222.13
2023-02-16T07:47:35.971Z,102224.94
2023-02-16T07:50:02.461Z,102225.94
2023-02-16T07:52:31.185Z,102224.09
2023-02-16T07:55:01.664Z,102237.34
2023-02-16T07:57:28.880Z,102229.31
2023-02-16T07:59:56.008Z,102224.22
2023-02-16T08:02:23.600Z,102223.53
2023-02-16T08:04:52.695Z,102235.81
2023-02-16T08:07:20.495Z,102224.38
2023-02-16T08:09:47.136Z,102225.94
2023-02-16T08:12:15.506Z,102232.72
2023-02-16T08:14:42.577Z,102238.91
2023-02-16T08:17:09.678Z,102232.97
2023-02-16T08:19:37.179Z,102232.88
2023-02-16T08:22:04.656Z,102239.91
2023-02-16T08:24:31.639Z,102235.53
2023-02-16T08:26:58.045Z,102239.63
2023-02-16T08:29:24.591Z,102239.34
2023-02-16T08:31:51.974Z,102240.75
2023-02-16T08:34:20.615Z,102246.81
2023-02-16T08:36:53.765Z,102254.72
2023-02-16T08:39:22.780Z,102254.88
2023-02-16T08:41:50.132Z,102253.31
2023-02-16T08:44:18.154Z,102262.19
2023-02-16T08:46:46.543Z,102254.03
2023-02-16T08:49:15.060Z,102249.63
2023-02-16T08:51:44.167Z,102247.53
2023-02-16T08:54:15.706Z,102240.31
2023-02-16T08:56:46.015Z,102241.88
2023-02-16T08:59:14.548Z,102233.16
2023-02-16T09:01:41.533Z,102241.88
2023-02-16T09:04:08.795Z,102239.22
2023-02-16T09:06:40.106Z,102228.06
2023-02-16T09:09:08.672Z,102227.94
2023-02-16T09:11:36.514Z,102233.31
2023-02-16T09:14:04.223Z,102236.09
2023-02-16T09:16:34.615Z,102231.59
2023-02-16T09:19:01.933Z,102229.22
2023-02-16T09:21:32.416Z,102231.03
2023-02-16T09:24:04.062Z,102223.97
2023-02-16T09:26:33.625Z,102226.38
2023-02-16T09:29:02.054Z,102228.63
2023-02-16T09:31:31.534Z,102219.31
2023-02-16T09:34:02.453Z,102224.41
2023-02-16T09:36:28.946Z,102219.91
2023-02-16T09:38:56.143Z,102224.69
2023-02-16T09:41:40.517Z,102227.78
2023-02-16T09:44:21.677Z,102231.31
2023-02-16T09:46:49.730Z,102231.75
2023-02-16T09:49:37.809Z,102235.84
2023-02-16T09:52:16.268Z,102245.97
2023-02-16T09:54:49.217Z,102240.19
2023-02-16T09:57:41.806Z,102241.19
2023-02-16T10:00:25.755Z,102237.91
2023-02-16T10:02:59.717Z,102249.09
2023-02-16T10:05:51.863Z,102258.56
2023-02-16T10:08:37.212Z,102252.03
2023-02-16T10:11:28.726Z,102252.44
2023-02-16T10:13:59.657Z,102253.00
2023-02-16T10:16:34.280Z,102252.44
2023-02-16T10:19:11.391Z,102259.22
2023-02-16T10:21:39.686Z,102253.31
2023-02-16T10:24:07.362Z,102250.19
2023-02-16T10:26:41.879Z,102243.81
2023-02-16T10:29:15.775Z,102238.03
2023-02-16T10:31:48.729Z,102242.09
2023-02-16T10:34:45.468Z,102233.38
2023-02-16T10:37:23.897Z,102235.63
2023-02-16T10:39:56.359Z,102231.94
2023-02-16T10:42:44.558Z,102227.41
2023-02-16T10:45:14.047Z,102218.06
2023-02-16T10:47:43.503Z,102225.44
2023-02-16T10:50:25.214Z,102217.22
2023-02-16T10:52:56.082Z,102219.16
2023-02-16T10:55:22.520Z,102214.91
2023-02-16T10:57:58.898Z,102218.81
2023-02-16T11:00:58.628Z,102214.91
2023-02-16T11:03:29.856Z,102215.44
2023-02-16T11:05:56.929Z,102208.63
2023-02-16T11:08:25.617Z,102219.09
2023-02-16T11:10:54.088Z,102217.25
2023-02-16T11:13:33.814Z,102209.72
2023-02-16T11:16:05.730Z,102217.91
2023-02-16T11:18:40.505Z,102211.03
2023-02-16T11:21:08.652Z,102210.50
2023-02-16T11:23:36.328Z,102207.91
2023-02-16T11:26:14.528Z,102211.69
2023-02-16T11:28:46.432Z,102199.66
2023-02-16T11:31:19.796Z,102209.66
2023-02-16T11:34:05.861Z,102214.56
2023-02-16T11:36:42.715Z,102201.50
2023-02-16T11:39:24.509Z,102196.69
2023-02-16T11:42:01.239Z,102202.47
2023-02-16T11:44:32.964Z,102194.91
2023-02-16T11:47:07.875Z,102185.59
2023-02-16T11:49:40.259Z,102182.31
2023-02-16T11:52:30.422Z,102172.41
2023-02-16T11:54:59.868Z,102166.66
2023-02-16T11:57:33.832Z,102166.41
2023-02-16T12:00:07.307Z,102166.41
2023-02-16T12:03:06.168Z,102160.19
2023-02-16T12:05:43.364Z,102151.31
2023-02-16T12:08:32.179Z,102158.22
2023-02-16T12:11:31.642Z,102147.84
2023-02-16T12:14:16.711Z,102129.91
2023-02-16T12:17:06.844Z,102126.09
2023-02-16T12:19:39.945Z,102124.97
2023-02-16T12:22:25.452Z,102125.72
2023-02-16T12:25:49.239Z,102115.00
2023-02-16T12:28:37.171Z,102108.78
2023-02-16T12:31:28.414Z,102107.97
2023-02-16T12:34:11.885Z,102102.22
2023-02-16T12:36:55.033Z,102099.34
2023-02-16T12:39:46.126Z,102102.56
2023-02-16T12:42:21.845Z,102102.22
2023-02-16T12:44:56.883Z,102105.41
2023-02-16T12:47:31.493Z,102103.56
2023-02-16T12:50:27.687Z,102104.25
2023-02-16T12:53:06.106Z,102102.75
2023-02-16T12:55:38.503Z,102104.94
2023-02-16T12:58:08.029Z,102105.31
2023-02-16T13:01:03.012Z,102100.91
2023-02-16T13:03:52.808Z,102096.72
2023-02-16T13:06:50.321Z,102089.78
2023-02-16T13:09:33.901Z,102076.88
2023-02-16T13:12:39.437Z,102071.84
2023-02-16T13:15:14.357Z,102062.75
2023-02-16T13:17:47.684Z,102058.41
2023-02-16T13:20:20.605Z,102058.44
2023-02-16T13:22:59.229Z,102051.22
2023-02-16T13:25:37.931Z,102042.69
2023-02-16T13:28:29.188Z,102045.06
2023-02-16T13:31:08.503Z,102045.06
2023-02-16T13:33:45.488Z,102043.72
2023-02-16T13:36:21.342Z,102029.44
2023-02-16T13:39:12.629Z,102030.88
2023-02-16T13:41:55.525Z,102023.72
2023-02-16T13:44:33.480Z,102022.69
2023-02-16T13:47:03.803Z,102019.34
2023-02-16T13:49:38.386Z,102019.84
2023-02-16T13:52:07.274Z,102010.25
2023-02-16T13:54:36.783Z,102025.56
2023-02-16T13:57:04.270Z,102011.41
2023-02-16T13:59:36.799Z,102009.19
2023-02-16T14:02:09.263Z,102003.19
2023-02-16T14:04:35.838Z,102010.75
2023-02-16T14:07:07.198Z,102000.44
2023-02-16T14:09:39.846Z,102001.44
2023-02-16T14:12:11.377Z,102004.81
2023-02-16T14:14:56.348Z,101992.53
2023-02-16T14:17:29.226Z,101990.66
2023-02-16T14:20:05.918Z,101992.69
2023-02-16T14:22:53.280Z,101985.25
2023-02-16T14:25:19.643Z,101994.03
2023-02-16T14:27:53.041Z,101997.38
2023-02-16T14:30:25.502Z,101998.41
2023-02-16T14:33:05.127Z,102004.97
2023-02-16T14:35:35.455Z,102000.28
2023-02-16T14:38:05.693Z,101997.59
2023-02-16T14:40:35.108Z,102002.97
2023-02-16T14:43:32.111Z,102011.03
2023-02-16T14:46:19.482Z,102008.00
2023-02-16T14:49:10.888Z,102008.00
2023-02-16T14:51:58.865Z,102011.31
2023-02-16T14:55:16.519Z,102004.88
2023-02-16T14:57:57.409Z,102004.53
2023-02-16T15:00:52.527Z,102004.72
2023-02-16T15:03:22.337Z,102006.41
2023-02-16T15:05:56.188Z,101997.50
2023-02-16T15:08:35.153Z,101994.97
2023-02-16T15:11:31.341Z,101996.81
2023-02-16T15:14:09.337Z,101986.19
2023-02-16T15:16:40.338Z,101988.03
2023-02-16T15:19:17.201Z,101993.59
2023-02-16T15:21:44.588Z,101995.94
2023-02-16T15:24:22.412Z,101992.72
2023-02-16T15:26:57.877Z,101983.66
2023-02-16T15:29:27.276Z,101982.44
2023-02-16T15:31:54.530Z,101989.31
2023-02-16T15:34:35.098Z,101987.47
2023-02-16T15:37:19.033Z,101983.72
2023-02-16T15:40:03.043Z,101985.59
2023-02-16T15:42:34.015Z,101985.06
2023-02-16T15:45:00.684Z,101980.50
2023-02-16T15:47:27.285Z,101982.59
2023-02-16T15:49:54.984Z,101971.97
2023-02-16T15:52:34.761Z,101967.94
2023-02-16T15:55:04.825Z,101973.69
2023-02-16T15:57:38.273Z,101979.06
2023-02-16T16:00:08.474Z,101983.06
2023-02-16T16:02:49.710Z,101976.50
2023-02-16T16:05:32.821Z,101975.53
2023-02-16T16:08:00.569Z,101972.13
2023-02-16T16:10:36.505Z,101970.09
2023-02-16T16:13:06.516Z,101962.53
2023-02-16T16:15:41.664Z,101968.09
2023-02-16T16:18:39.842Z,101973.09
2023-02-16T16:21:18.715Z,101961.03
2023-02-16T16:23:55.332Z,101963.72
2023-02-16T16:26:23.456Z,101956.81
2023-02-16T16:28:50.812Z,101954.59
2023-02-16T16:31:20.172Z,101948.75
2023-02-16T16:34:04.561Z,101942.88
2023-02-16T16:36:56.969Z,101929.75
2023-02-16T16:39:29.491Z,101936.59
2023-02-16T16:42:22.111Z,101941.13
2023-02-16T16:45:20.751Z,101932.44
2023-02-16T16:47:51.953Z,101934.78
2023-02-16T16:50:33.593Z,101929.09
2023-02-16T16:53:00.816Z,101921.00
2023-02-16T16:55:30.877Z,101926.88
2023-02-16T16:58:06.073Z,101928.88
2023-02-16T17:00:36.075Z,101933.59
2023-02-16T17:03:05.175Z,101927.38
2023-02-16T17:05:34.243Z,101924.69
2023-02-16T17:08:00.649Z,101926.69
2023-02-16T17:10:27.708Z,101906.34
2023-02-16T17:12:57.970Z,101911.72
2023-02-16T17:15:42.609Z,101913.41
2023-02-16T17:18:16.047Z,101917.09
2023-02-16T17:20:43.136Z,101907.19
2023-02-16T17:23:14.890Z,101916.94
2023-02-16T17:25:41.712Z,101920.94
2023-02-16T17:28:09.132Z,101904.81
2023-02-16T17:30:35.762Z,101921.66
2023-02-16T17:33:02.570Z,101905.84
2023-02-16T17:35:31.209Z,101904.66
2023-02-16T17:37:57.653Z,101909.03
2023-02-16T17:40:24.986Z,101901.97
2023-02-16T17:42:51.437Z,101899.44
2023-02-16T17:45:20.719Z,101902.66
2023-02-16T17:47:50.605Z,101900.31
2023-02-16T17:50:17.179Z,101898.66
2023-02-16T17:52:44.555Z,101896.47
2023-02-16T17:55:12.867Z,101894.28
2023-02-16T17:57:39.721Z,101894.09
2023-02-16T18:00:09.030Z,101899.31
2023-02-16T18:02:35.475Z,101892.44
2023-02-16T18:05:01.905Z,101883.03
2023-02-16T18:07:28.334Z,101889.75
2023-02-16T18:09:55.056Z,101896.47
2023-02-16T18:12:21.486Z,101896.50
2023-02-16T18:14:47.983Z,101898.38
2023-02-16T18:17:14.408Z,101892.16
2023-02-16T18:19:40.860Z,101892.81
2023-02-16T18:22:07.256Z,101898.19
2023-02-16T18:24:33.606Z,101913.00
2023-02-16T18:26:59.957Z,101899.22
2023-02-16T18:29:26.415Z,101900.91
2023-02-16T18:31:52.892Z,101899.75
2023-02-16T18:34:19.319Z,101892.53
2023-02-16T18:36:45.713Z,101889.63
2023-02-16T18:39:12.161Z,101894.84
2023-02-16T18:41:38.534Z,101893.00
2023-02-16T18:44:05.223Z,101898.19
2023-02-16T18:46:31.654Z,101901.56
2023-02-16T18:48:58.146Z,101884.94
2023-02-16T18:51:28.829Z,101891.00
2023-02-16T18:53:56.887Z,101892.66
2023-02-16T18:56:23.878Z,101895.03
2023-02-16T18:58:50.498Z,101886.44
2023-02-16T19:01:26.389Z,101889.16
2023-02-16T19:03:52.923Z,101886.94
2023-02-16T19:06:19.370Z,101894.69
2023-02-16T19:08:47.428Z,101898.91
2023-02-16T19:11:13.924Z,101882.78
2023-02-16T19:13:40.311Z,101887.13
2023-02-16T19:16:07.202Z,101886.44
2023-02-16T19:18:34.043Z,101892.34
2023-02-16T19:21:04.945Z,101890.69
2023-02-16T19:23:31.406Z,101881.78
2023-02-16T19:25:57.879Z,101881.44
2023-02-16T19:28:24.353Z,101884.28
2023-02-16T19:30:50.805Z,101885.97
2023-02-16T19:33:17.217Z,101879.28
2023-02-16T19:35:43.663Z,101888.66
2023-02-16T19:38:10.123Z,101886.97
2023-02-16T19:40:38.696Z,101887.81
2023-02-16T19:43:05.056Z,101877.91
2023-02-16T19:45:31.482Z,101884.97
2023-02-16T19:47:57.868Z,101881.28
2023-02-16T19:50:24.249Z,101880.25
2023-02-16T19:52:50.695Z,101878.25
2023-02-16T19:55:17.166Z,101874.22
2023-02-16T19:57:43.577Z,101873.56
2023-02-16T20:00:11.558Z,101877.56
2023-02-16T20:02:40.656Z,101880.13
2023-02-16T20:05:09.577Z,101879.94
2023-02-16T20:07:36.161Z,101882.31
2023-02-16T20:10:02.952Z,101874.22
2023-02-16T20:12:29.443Z,101873.72
2023-02-16T20:14:55.937Z,101872.50
2023-02-16T20:17:22.421Z,101876.22
2023-02-16T20:19:48.845Z,101882.44
2023-02-16T20:22:16.851Z,101878.75
2023-02-16T20:24:44.799Z,101881.59
2023-02-16T20:27:12.379Z,101870.84
2023-02-16T20:29:38.843Z,101875.91
2023-02-16T20:32:05.677Z,101877.56
2023-02-16T20:34:32.223Z,101870.19
2023-02-16T20:36:58.689Z,101869.19
2023-02-16T20:39:25.167Z,101867.34
2023-02-16T20:41:51.583Z,101873.91
2023-02-16T20:44:18.050Z,101869.50
2023-02-16T20:46:44.548Z,101871.22
2023-02-16T20:49:11.170Z,101868.19
2023-02-16T20:51:37.865Z,101858.75
2023-02-16T20:54:05.482Z,101858.09
2023-02-16T20:56:32.107Z,101857.25
2023-02-16T20:58:58.912Z,101862.63
2023-02-16T21:01:26.930Z,101868.66
2023-02-16T21:03:55.366Z,101861.28
2023-02-16T21:06:22.269Z,101864.97
2023-02-16T21:08:48.710Z,101867.84
2023-02-16T21:11:15.599Z,101856.91
2023-02-16T21:13:42.358Z,101851.38
2023-02-16T21:16:09.439Z,101855.41
2023-02-16T21:18:38.762Z,101856.25
2023-02-16T21:21:07.697Z,101865.84
2023-02-16T21:23:34.087Z,101845.63
2023-02-16T21:26:04.029Z,101849.19
2023-02-16T21:28:31.145Z,101849.00
2023-02-16T21:31:03.205Z,101852.72
2023-02-16T21:33:29.774Z,101855.22
2023-02-16T21:36:12.657Z,101846.84
2023-02-16T21:38:40.265Z,101842.94
2023-02-16T21:41:25.164Z,101844.66
2023-02-16T21:44:02.933Z,101852.03
2023-02-16T21:46:33.170Z,101855.91
2023-02-16T21:48:59.774Z,101853.69
2023-02-16T21:51:33.546Z,101846.50
2023-02-16T21:54:00.142Z,101853.06
2023-02-16T21:56:38.916Z,101858.44
2023-02-16T21:59:08.484Z,101848.50
2023-02-16T22:01:39.300Z,101852.38
2023-02-16T22:04:06.421Z,101843.31
2023-02-16T22:06:37.273Z,101846.16
2023-02-16T22:09:12.988Z,101838.44
2023-02-16T22:11:39.594Z,101839.09
2023-02-16T22:14:06.855Z,101831.03
2023-02-16T22:16:35.486Z,101836.59
2023-02-16T22:19:07.375Z,101835.06
2023-02-16T22:21:38.688Z,101835.59
2023-02-16T22:24:05.962Z,101845.31
2023-02-16T22:26:34.899Z,101834.56
2023-02-16T22:29:03.719Z,101840.63
2023-02-16T22:31:30.209Z,101835.75
2023-02-16T22:33:57.834Z,101836.94
2023-02-16T22:36:24.374Z,101830.72
2023-02-16T22:38:53.133Z,101829.88
2023-02-16T22:41:20.296Z,101841.66
2023-02-16T22:43:47.028Z,101837.25
2023-02-16T22:46:16.791Z,101848.19
2023-02-16T22:48:44.367Z,101848.53
2023-02-16T22:51:13.692Z,101848.50
2023-02-16T22:53:40.065Z,101842.63
2023-02-16T22:56:08.888Z,101837.75
2023-02-16T22:58:36.070Z,101834.06
2023-02-16T23:01:02.631Z,101836.59
2023-02-16T23:03:42.191Z,101835.59
2023-02-16T23:06:17.799Z,101828.88
2023-02-16T23:08:45.788Z,101820.78
2023-02-16T23:11:12.886Z,101827.69
2023-02-16T23:13:39.537Z,101834.94
2023-02-16T23:16:15.533Z,101834.56
2023-02-16T23:18:43.065Z,101836.94
2023-02-16T23:21:23.395Z,101843.13
2023-02-16T23:23:51.912Z,101834.06
2023-02-16T23:26:19.391Z,101816.94
2023-02-16T23:28:49.189Z,101823.47
2023-02-16T23:31:15.652Z,101827.00
2023-02-16T23:33:42.293Z,101820.78
2023-02-16T23:36:09.168Z,101833.56
2023-02-16T23:38:35.606Z,101827.34
2023-02-16T23:41:08.310Z,101828.69
2023-02-16T23:43:35.178Z,101825.84
2023-02-16T23:46:02.675Z,101824.00
2023-02-16T23:48:30.207Z,101816.78
2023-02-16T23:50:56.959Z,101809.84
2023-02-16T23:53:25.280Z,101813.41
2023-02-16T23:55:58.654Z,101806.00
2023-02-16T23:58:27.216Z,101803.13
